sensor_id;sensor_type;location;lat;lon;timestamp;pressure;altitude;pressure_sealevel;temperature;humidity
70411;BME280;57832;46.038;11.398;2023-02-28T00:01:04;97187.63;;;-0.30;100.00
70411;BME280;57832;46.038;11.398;2023-02-28T00:03:29;97193.25;;;-0.35;100.00
70411;BME280;57832;46.038;11.398;2023-02-28T00:05:55;97199.94;;;-0.57;100.00
70411;BME280;57832;46.038;11.398;2023-02-28T00:08:20;97197.38;;;-0.74;100.00
70411;BME280;57832;46.038;11.398;2023-02-28T00:10:46;97206.44;;;-0.94;100.00
70411;BME280;57832;46.038;11.398;2023-02-28T00:13:12;97215.09;;;-0.62;100.00
70411;BME280;57832;46.038;11.398;2023-02-28T00:15:38;97216.06;;;-0.88;100.00
70411;BME280;57832;46.038;11.398;2023-02-28T00:18:03;97224.28;;;-0.60;100.00
70411;BME280;57832;46.038;11.398;2023-02-28T00:20:29;97220.06;;;-0.53;100.00
70411;BME280;57832;46.038;11.398;2023-02-28T00:22:55;97211.50;;;-0.45;100.00
70411;BME280;57832;46.038;11.398;2023-02-28T00:25:23;97213.72;;;-0.25;100.00
70411;BME280;57832;46.038;11.398;2023-02-28T00:27:49;97219.44;;;-0.55;100.00
70411;BME280;57832;46.038;11.398;2023-02-28T00:30:20;97223.97;;;-0.73;100.00
70411;BME280;57832;46.038;11.398;2023-02-28T00:32:47;97211.69;;;-0.46;100.00
70411;BME280;57832;46.038;11.398;2023-02-28T00:35:12;97207.13;;;-0.36;100.00
70411;BME280;57832;46.038;11.398;2023-02-28T00:37:38;97209.03;;;-0.30;100.00
70411;BME280;57832;46.038;11.398;2023-02-28T00:40:04;97212.94;;;-0.34;100.00
70411;BME280;57832;46.038;11.398;2023-02-28T00:42:31;97209.84;;;-0.29;100.00
70411;BME280;57832;46.038;11.398;2023-02-28T00:44:56;97209.72;;;-0.44;100.00
70411;BME280;57832;46.038;11.398;2023-02-28T00:47:22;97210.34;;;-0.34;100.00
70411;BME280;57832;46.038;11.398;2023-02-28T00:49:47;97219.16;;;-0.20;100.00
70411;BME280;57832;46.038;11.398;2023-02-28T00:52:13;97228.06;;;-0.39;100.00
70411;BME280;57832;46.038;11.398;2023-02-28T00:54:39;97222.31;;;-0.41;100.00
70411;BME280;57832;46.038;11.398;2023-02-28T00:57:04;97234.38;;;-0.42;100.00
70411;BME280;57832;46.038;11.398;2023-02-28T00:59:29;97234.63;;;-0.20;100.00
70411;BME280;57832;46.038;11.398;2023-02-28T01:01:55;97232.53;;;-0.17;100.00
70411;BME280;57832;46.038;11.398;2023-02-28T01:04:21;97237.84;;;-0.18;100.00
70411;BME280;57832;46.038;11.398;2023-02-28T01:06:46;97237.97;;;-0.03;100.00
70411;BME280;57832;46.038;11.398;2023-02-28T01:09:12;97233.91;;;0.03;100.00
70411;BME280;57832;46.038;11.398;2023-02-28T01:11:38;97238.34;;;-0.14;100.00
70411;BME280;57832;46.038;11.398;2023-02-28T01:14:06;97228.13;;;0.01;100.00
70411;BME280;57832;46.038;11.398;2023-02-28T01:16:31;97233.97;;;-0.14;100.00
70411;BME280;57832;46.038;11.398;2023-02-28T01:18:57;97230.44;;;-0.13;100.00
70411;BME280;57832;46.038;11.398;2023-02-28T01:21:23;97236.34;;;-0.04;100.00
70411;BME280;57832;46.038;11.398;2023-02-28T01:23:49;97236.69;;;0.32;100.00
70411;BME280;57832;46.038;11.398;2023-02-28T01:26:17;97228.97;;;0.24;100.00
70411;BME280;57832;46.038;11.398;2023-02-28T01:28:43;97228.78;;;-0.06;100.00
70411;BME280;57832;46.038;11.398;2023-02-28T01:31:09;97228.50;;;-0.19;100.00
70411;BME280;57832;46.038;11.398;2023-02-28T01:33:35;97230.44;;;-0.13;100.00
70411;BME280;57832;46.038;11.398;2023-02-28T01:36:06;97224.31;;;-0.12;100.00
70411;BME280;57832;46.038;11.398;2023-02-28T01:38:33;97226.06;;;-0.12;100.00
70411;BME280;57832;46.038;11.398;2023-02-28T01:40:58;97222.41;;;-0.26;100.00
70411;BME280;57832;46.038;11.398;2023-02-28T01:43:27;97224.31;;;-0.20;100.00
70411;BME280;57832;46.038;11.398;2023-02-28T01:45:55;97231.34;;;-0.06;100.00
70411;BME280;57832;46.038;11.398;2023-02-28T01:48:24;97229.28;;;-0.10;100.00
70411;BME280;57832;46.038;11.398;2023-02-28T01:50:51;97226.94;;;0.11;100.00
70411;BME280;57832;46.038;11.398;2023-02-28T01:53:21;97232.63;;;-0.02;100.00
70411;BME280;57832;46.038;11.398;2023-02-28T01:55:50;97231.19;;;0.04;100.00
70411;BME280;57832;46.038;11.398;2023-02-28T01:58:17;97237.66;;;-0.08;100.00
70411;BME280;57832;46.038;11.398;2023-02-28T02:00:43;97227.13;;;0.10;100.00
70411;BME280;57832;46.038;11.398;2023-02-28T02:03:12;97233.13;;;0.33;100.00
70411;BME280;57832;46.038;11.398;2023-02-28T02:05:40;97237.31;;;0.35;100.00
70411;BME280;57832;46.038;11.398;2023-02-28T02:08:11;97238.75;;;0.37;100.00
70411;BME280;57832;46.038;11.398;2023-02-28T02:10:52;97241.19;;;0.39;100.00
70411;BME280;57832;46.038;11.398;2023-02-28T02:13:29;97242.72;;;0.48;100.00
70411;BME280;57832;46.038;11.398;2023-02-28T02:18:47;97241.63;;;0.42;100.00
70411;BME280;57832;46.038;11.398;2023-02-28T02:24:27;97254.75;;;0.32;100.00
70411;BME280;57832;46.038;11.398;2023-02-28T02:27:45;97257.94;;;0.35;100.00
70411;BME280;57832;46.038;11.398;2023-02-28T02:33:28;97263.34;;;0.48;100.00
70411;BME280;57832;46.038;11.398;2023-02-28T02:39:01;97263.94;;;0.58;100.00
70411;BME280;57832;46.038;11.398;2023-02-28T02:41:52;97254.81;;;0.79;100.00
70411;BME280;57832;46.038;11.398;2023-02-28T02:44:23;97263.69;;;0.76;100.00
70411;BME280;57832;46.038;11.398;2023-02-28T02:46:53;97260.59;;;0.81;100.00
70411;BME280;57832;46.038;11.398;2023-02-28T02:49:27;97258.19;;;0.48;100.00
70411;BME280;57832;46.038;11.398;2023-02-28T02:51:54;97261.66;;;0.63;100.00
70411;BME280;57832;46.038;11.398;2023-02-28T02:54:24;97261.66;;;0.63;100.00
70411;BME280;57832;46.038;11.398;2023-02-28T02:56:55;97259.75;;;0.57;100.00
70411;BME280;57832;46.038;11.398;2023-02-28T02:59:23;97254.16;;;0.77;100.00
70411;BME280;57832;46.038;11.398;2023-02-28T03:01:53;97258.59;;;0.68;100.00
70411;BME280;57832;46.038;11.398;2023-02-28T03:04:22;97262.50;;;0.56;100.00
70411;BME280;57832;46.038;11.398;2023-02-28T03:06:50;97259.16;;;0.55;100.00
70411;BME280;57832;46.038;11.398;2023-02-28T03:09:23;97263.63;;;0.61;100.00
70411;BME280;57832;46.038;11.398;2023-02-28T03:11:51;97263.75;;;0.68;100.00
70411;BME280;57832;46.038;11.398;2023-02-28T03:14:32;97259.09;;;0.87;100.00
70411;BME280;57832;46.038;11.398;2023-02-28T03:22:54;97249.28;;;1.05;100.00
70411;BME280;57832;46.038;11.398;2023-02-28T03:25:29;97260.28;;;0.76;100.00
70411;BME280;57832;46.038;11.398;2023-02-28T03:28:21;97268.38;;;0.73;100.00
70411;BME280;57832;46.038;11.398;2023-02-28T03:34:03;97262.34;;;0.57;100.00
70411;BME280;57832;46.038;11.398;2023-02-28T03:36:33;97260.25;;;0.84;100.00
70411;BME280;57832;46.038;11.398;2023-02-28T03:39:14;97269.03;;;0.75;100.00
70411;BME280;57832;46.038;11.398;2023-02-28T03:41:54;97269.34;;;0.72;100.00
70411;BME280;57832;46.038;11.398;2023-02-28T03:44:29;97275.78;;;0.76;100.00
70411;BME280;57832;46.038;11.398;2023-02-28T03:47:17;97279.44;;;0.58;100.00
70411;BME280;57832;46.038;11.398;2023-02-28T03:50:10;97277.94;;;0.64;100.00
70411;BME280;57832;46.038;11.398;2023-02-28T03:52:43;97281.66;;;0.70;100.00
70411;BME280;57832;46.038;11.398;2023-02-28T03:55:12;97290.38;;;0.69;100.00
70411;BME280;57832;46.038;11.398;2023-02-28T04:00:19;97294.63;;;0.61;100.00
70411;BME280;57832;46.038;11.398;2023-02-28T04:02:45;97302.97;;;0.63;100.00
70411;BME280;57832;46.038;11.398;2023-02-28T04:05:11;97294.69;;;0.45;100.00
70411;BME280;57832;46.038;11.398;2023-02-28T04:07:36;97293.53;;;0.47;100.00
70411;BME280;57832;46.038;11.398;2023-02-28T04:10:03;97285.38;;;0.67;100.00
70411;BME280;57832;46.038;11.398;2023-02-28T04:12:29;97286.16;;;0.68;100.00
70411;BME280;57832;46.038;11.398;2023-02-28T04:14:54;97292.81;;;0.62;100.00
70411;BME280;57832;46.038;11.398;2023-02-28T04:17:20;97289.16;;;0.48;100.00
70411;BME280;57832;46.038;11.398;2023-02-28T04:19:45;97287.53;;;0.55;100.00
70411;BME280;57832;46.038;11.398;2023-02-28T04:22:11;97289.16;;;0.56;100.00
70411;BME280;57832;46.038;11.398;2023-02-28T04:24:36;97277.13;;;0.40;100.00
70411;BME280;57832;46.038;11.398;2023-02-28T04:27:06;97279.50;;;0.50;100.00
70411;BME280;57832;46.038;11.398;2023-02-28T04:29:32;97272.66;;;0.57;100.00
70411;BME280;57832;46.038;11.398;2023-02-28T04:31:58;97277.16;;;0.63;100.00
70411;BME280;57832;46.038;11.398;2023-02-28T04:34:29;97271.75;;;0.81;100.00
70411;BME280;57832;46.038;11.398;2023-02-28T04:36:55;97272.19;;;0.85;100.00
70411;BME280;57832;46.038;11.398;2023-02-28T04:39:22;97269.47;;;0.78;100.00
70411;BME280;57832;46.038;11.398;2023-02-28T04:41:48;97264.25;;;0.87;100.00
70411;BME280;57832;46.038;11.398;2023-02-28T04:44:14;97264.72;;;0.90;100.00
70411;BME280;57832;46.038;11.398;2023-02-28T04:46:41;97265.00;;;0.95;100.00
70411;BME280;57832;46.038;11.398;2023-02-28T04:49:06;97258.00;;;0.81;100.00
70411;BME280;57832;46.038;11.398;2023-02-28T04:51:32;97249.41;;;0.89;100.00
70411;BME280;57832;46.038;11.398;2023-02-28T04:53:57;97246.19;;;0.63;100.00
70411;BME280;57832;46.038;11.398;2023-02-28T04:56:23;97255.38;;;0.66;100.00
70411;BME280;57832;46.038;11.398;2023-02-28T04:58:49;97254.41;;;0.67;100.00
70411;BME280;57832;46.038;11.398;2023-02-28T05:01:28;97245.16;;;0.73;100.00
70411;BME280;57832;46.038;11.398;2023-02-28T05:03:56;97252.03;;;0.80;100.00
70411;BME280;57832;46.038;11.398;2023-02-28T05:06:23;97253.97;;;0.78;100.00
70411;BME280;57832;46.038;11.398;2023-02-28T05:08:50;97259.22;;;0.70;100.00
70411;BME280;57832;46.038;11.398;2023-02-28T05:11:26;97255.38;;;0.66;100.00
70411;BME280;57832;46.038;11.398;2023-02-28T05:13:54;97265.28;;;0.54;100.00
70411;BME280;57832;46.038;11.398;2023-02-28T05:16:19;97264.31;;;0.55;100.00
70411;BME280;57832;46.038;11.398;2023-02-28T05:18:45;97261.78;;;0.47;100.00
70411;BME280;57832;46.038;11.398;2023-02-28T05:23:52;97283.09;;;0.41;100.00
70411;BME280;57832;46.038;11.398;2023-02-28T05:26:18;97281.16;;;0.43;100.00
70411;BME280;57832;46.038;11.398;2023-02-28T05:28:43;97290.66;;;0.42;100.00
70411;BME280;57832;46.038;11.398;2023-02-28T05:31:12;97289.78;;;0.58;100.00
70411;BME280;57832;46.038;11.398;2023-02-28T05:33:38;97287.22;;;0.10;100.00
70411;BME280;57832;46.038;11.398;2023-02-28T05:36:05;97291.34;;;-0.12;100.00
70411;BME280;57832;46.038;11.398;2023-02-28T05:38:31;97289.16;;;0.16;100.00
70411;BME280;57832;46.038;11.398;2023-02-28T05:40:57;97282.41;;;0.07;100.00
70411;BME280;57832;46.038;11.398;2023-02-28T05:43:22;97282.19;;;0.25;100.00
70411;BME280;57832;46.038;11.398;2023-02-28T05:45:48;97278.97;;;0.23;100.00
70411;BME280;57832;46.038;11.398;2023-02-28T05:48:14;97280.41;;;0.26;100.00
70411;BME280;57832;46.038;11.398;2023-02-28T05:50:39;97285.44;;;0.19;100.00
70411;BME280;57832;46.038;11.398;2023-02-28T05:53:06;97289.34;;;0.15;100.00
70411;BME280;57832;46.038;11.398;2023-02-28T05:55:33;97298.03;;;0.14;100.00
70411;BME280;57832;46.038;11.398;2023-02-28T05:57:59;97291.94;;;0.07;100.00
70411;BME280;57832;46.038;11.398;2023-02-28T06:00:25;97292.78;;;0.30;100.00
70411;BME280;57832;46.038;11.398;2023-02-28T06:02:50;97292.22;;;0.12;100.00
70411;BME280;57832;46.038;11.398;2023-02-28T06:05:17;97296.78;;;0.02;100.00
70411;BME280;57832;46.038;11.398;2023-02-28T06:07:43;97299.16;;;0.11;100.00
70411;BME280;57832;46.038;11.398;2023-02-28T06:10:10;97303.13;;;0.30;100.00
70411;BME280;57832;46.038;11.398;2023-02-28T06:12:37;97310.28;;;0.20;100.00
70411;BME280;57832;46.038;11.398;2023-02-28T06:15:03;97309.63;;;0.18;100.00
70411;BME280;57832;46.038;11.398;2023-02-28T06:17:28;97311.38;;;0.26;100.00
70411;BME280;57832;46.038;11.398;2023-02-28T06:19:54;97321.00;;;0.32;100.00
70411;BME280;57832;46.038;11.398;2023-02-28T06:22:19;97330.78;;;0.13;100.00
70411;BME280;57832;46.038;11.398;2023-02-28T06:24:45;97342.19;;;0.19;100.00
70411;BME280;57832;46.038;11.398;2023-02-28T06:27:10;97338.66;;;0.20;100.00
70411;BME280;57832;46.038;11.398;2023-02-28T06:29:36;97341.84;;;0.22;100.00
70411;BME280;57832;46.038;11.398;2023-02-28T06:32:05;97348.63;;;0.23;100.00
70411;BME280;57832;46.038;11.398;2023-02-28T06:34:31;97346.41;;;0.20;100.00
70411;BME280;57832;46.038;11.398;2023-02-28T06:36:56;97348.72;;;-0.10;100.00
70411;BME280;57832;46.038;11.398;2023-02-28T06:39:22;97350.47;;;-0.02;100.00
70411;BME280;57832;46.038;11.398;2023-02-28T06:41:47;97341.38;;;0.27;100.00
70411;BME280;57832;46.038;11.398;2023-02-28T06:44:16;97344.09;;;0.33;100.00
70411;BME280;57832;46.038;11.398;2023-02-28T06:46:44;97346.00;;;0.40;100.00
70411;BME280;57832;46.038;11.398;2023-02-28T06:49:09;97339.88;;;0.41;100.00
70411;BME280;57832;46.038;11.398;2023-02-28T06:51:40;97346.34;;;0.37;100.00
70411;BME280;57832;46.038;11.398;2023-02-28T06:54:07;97349.88;;;0.36;100.00
70411;BME280;57832;46.038;11.398;2023-02-28T06:56:35;97351.22;;;0.23;100.00
70411;BME280;57832;46.038;11.398;2023-02-28T06:59:02;97351.69;;;0.19;100.00
70411;BME280;57832;46.038;11.398;2023-02-28T07:01:27;97357.09;;;-0.08;100.00
70411;BME280;57832;46.038;11.398;2023-02-28T07:03:54;97352.25;;;-0.03;100.00
70411;BME280;57832;46.038;11.398;2023-02-28T07:06:21;97358.53;;;-0.05;100.00
70411;BME280;57832;46.038;11.398;2023-02-28T07:08:51;97358.84;;;0.08;100.00
70411;BME280;57832;46.038;11.398;2023-02-28T07:11:19;97357.16;;;0.24;100.00
70411;BME280;57832;46.038;11.398;2023-02-28T07:13:45;97351.69;;;0.27;100.00
70411;BME280;57832;46.038;11.398;2023-02-28T07:16:12;97352.53;;;0.03;100.00
70411;BME280;57832;46.038;11.398;2023-02-28T07:18:38;97351.03;;;0.25;100.00
70411;BME280;57832;46.038;11.398;2023-02-28T07:21:06;97354.72;;;0.30;100.00
70411;BME280;57832;46.038;11.398;2023-02-28T07:23:32;97356.25;;;0.08;100.00
70411;BME280;57832;46.038;11.398;2023-02-28T07:25:57;97356.72;;;0.12;100.00
70411;BME280;57832;46.038;11.398;2023-02-28T07:28:24;97352.53;;;0.11;100.00
70411;BME280;57832;46.038;11.398;2023-02-28T07:30:49;97349.91;;;0.27;100.00
70411;BME280;57832;46.038;11.398;2023-02-28T07:33:15;97350.84;;;0.35;100.00
70411;BME280;57832;46.038;11.398;2023-02-28T07:35:41;97345.91;;;0.64;100.00
70411;BME280;57832;46.038;11.398;2023-02-28T07:38:07;97351.09;;;0.88;100.00
70411;BME280;57832;46.038;11.398;2023-02-28T07:40:34;97346.72;;;0.96;100.00
70411;BME280;57832;46.038;11.398;2023-02-28T07:43:00;97348.34;;;0.89;100.00
70411;BME280;57832;46.038;11.398;2023-02-28T07:45:26;97339.44;;;1.00;100.00
70411;BME280;57832;46.038;11.398;2023-02-28T07:47:54;97339.34;;;1.31;100.00
70411;BME280;57832;46.038;11.398;2023-02-28T07:50:20;97333.44;;;1.46;100.00
70411;BME280;57832;46.038;11.398;2023-02-28T07:52:45;97330.41;;;1.57;100.00
70411;BME280;57832;46.038;11.398;2023-02-28T07:55:11;97335.56;;;1.65;100.00
70411;BME280;57832;46.038;11.398;2023-02-28T07:57:37;97340.00;;;1.33;100.00
70411;BME280;57832;46.038;11.398;2023-02-28T08:00:08;97337.31;;;1.65;100.00
70411;BME280;57832;46.038;11.398;2023-02-28T08:02:38;97339.03;;;1.73;100.00
70411;BME280;57832;46.038;11.398;2023-02-28T08:05:04;97337.31;;;1.65;100.00
70411;BME280;57832;46.038;11.398;2023-02-28T08:07:30;97336.28;;;1.36;100.00
70411;BME280;57832;46.038;11.398;2023-02-28T08:09:55;97342.28;;;1.52;100.00
70411;BME280;57832;46.038;11.398;2023-02-28T08:12:21;97340.75;;;1.57;100.00
70411;BME280;57832;46.038;11.398;2023-02-28T08:14:46;97331.84;;;1.60;100.00
70411;BME280;57832;46.038;11.398;2023-02-28T08:17:12;97336.66;;;2.01;100.00
70411;BME280;57832;46.038;11.398;2023-02-28T08:19:38;97338.38;;;2.39;100.00
70411;BME280;57832;46.038;11.398;2023-02-28T08:22:03;97337.19;;;2.56;100.00
70411;BME280;57832;46.038;11.398;2023-02-28T08:24:29;97339.41;;;2.59;100.00
70411;BME280;57832;46.038;11.398;2023-02-28T08:26:55;97344.69;;;2.88;100.00
70411;BME280;57832;46.038;11.398;2023-02-28T08:29:20;97341.09;;;2.67;100.00
70411;BME280;57832;46.038;11.398;2023-02-28T08:31:46;97349.50;;;3.49;100.00
70411;BME280;57832;46.038;11.398;2023-02-28T08:34:14;97349.00;;;4.59;100.00
70411;BME280;57832;46.038;11.398;2023-02-28T08:36:41;97342.84;;;5.62;100.00
70411;BME280;57832;46.038;11.398;2023-02-28T08:39:07;97352.81;;;6.39;100.00
70411;BME280;57832;46.038;11.398;2023-02-28T08:41:33;97347.91;;;10.45;100.00
70411;BME280;57832;46.038;11.398;2023-02-28T08:43:59;97342.78;;;10.50;75.46
70411;BME280;57832;46.038;11.398;2023-02-28T08:46:25;97344.44;;;6.03;100.00
70411;BME280;57832;46.038;11.398;2023-02-28T08:48:55;97345.19;;;6.24;100.00
70411;BME280;57832;46.038;11.398;2023-02-28T08:51:24;97340.06;;;6.62;100.00
70411;BME280;57832;46.038;11.398;2023-02-28T08:53:59;97333.53;;;6.98;100.00
70411;BME280;57832;46.038;11.398;2023-02-28T08:56:27;97345.47;;;7.95;100.00
70411;BME280;57832;46.038;11.398;2023-02-28T08:58:55;97342.19;;;8.25;100.00
70411;BME280;57832;46.038;11.398;2023-02-28T09:01:23;97334.66;;;9.03;90.72
70411;BME280;57832;46.038;11.398;2023-02-28T09:03:51;97331.31;;;9.38;85.58
70411;BME280;57832;46.038;11.398;2023-02-28T09:06:18;97339.41;;;11.70;63.34
70411;BME280;57832;46.038;11.398;2023-02-28T09:08:44;97337.19;;;15.16;43.17
70411;BME280;57832;46.038;11.398;2023-02-28T09:11:10;97340.88;;;11.03;47.18
70411;BME280;57832;46.038;11.398;2023-02-28T09:13:37;97347.78;;;9.81;62.18
70411;BME280;57832;46.038;11.398;2023-02-28T09:16:05;97353.34;;;9.61;72.26
70411;BME280;57832;46.038;11.398;2023-02-28T09:18:31;97346.78;;;9.94;71.08
70411;BME280;57832;46.038;11.398;2023-02-28T09:20:57;97357.72;;;9.79;69.41
70411;BME280;57832;46.038;11.398;2023-02-28T09:23:24;97351.66;;;9.78;65.31
70411;BME280;57832;46.038;11.398;2023-02-28T09:25:54;97347.44;;;8.93;67.59
70411;BME280;57832;46.038;11.398;2023-02-28T09:28:20;97354.72;;;9.63;65.86
70411;BME280;57832;46.038;11.398;2023-02-28T09:30:48;97355.25;;;9.42;61.28
70411;BME280;57832;46.038;11.398;2023-02-28T09:33:14;97355.88;;;12.78;50.53
70411;BME280;57832;46.038;11.398;2023-02-28T09:35:40;97344.47;;;18.22;37.75
70411;BME280;57832;46.038;11.398;2023-02-28T09:38:06;97347.72;;;17.79;34.57
70411;BME280;57832;46.038;11.398;2023-02-28T09:40:36;97340.97;;;13.38;40.50
70411;BME280;57832;46.038;11.398;2023-02-28T09:43:02;97349.53;;;10.87;45.93
70411;BME280;57832;46.038;11.398;2023-02-28T09:45:35;97351.91;;;11.46;50.13
70411;BME280;57832;46.038;11.398;2023-02-28T09:48:07;97353.97;;;11.78;47.93
70411;BME280;57832;46.038;11.398;2023-02-28T09:50:37;97345.34;;;11.49;47.73
70411;BME280;57832;46.038;11.398;2023-02-28T09:53:25;97344.63;;;11.36;49.35
70411;BME280;57832;46.038;11.398;2023-02-28T09:55:55;97344.94;;;11.40;47.52
70411;BME280;57832;46.038;11.398;2023-02-28T09:58:32;97346.97;;;11.67;47.04
70411;BME280;57832;46.038;11.398;2023-02-28T10:01:25;97332.75;;;13.62;43.26
70411;BME280;57832;46.038;11.398;2023-02-28T10:04:29;97328.38;;;18.57;35.07
70411;BME280;57832;46.038;11.398;2023-02-28T10:07:02;97322.56;;;19.36;30.95
70411;BME280;57832;46.038;11.398;2023-02-28T10:09:32;97320.31;;;17.25;31.78
70411;BME280;57832;46.038;11.398;2023-02-28T10:12:05;97333.53;;;12.19;38.28
70411;BME280;57832;46.038;11.398;2023-02-28T10:14:33;97330.00;;;11.75;41.31
70411;BME280;57832;46.038;11.398;2023-02-28T10:17:25;97328.63;;;12.45;41.75
70411;BME280;57832;46.038;11.398;2023-02-28T10:20:12;97313.69;;;13.55;41.80
70411;BME280;57832;46.038;11.398;2023-02-28T10:25:34;97299.13;;;13.80;39.83
70411;BME280;57832;46.038;11.398;2023-02-28T10:28:09;97295.72;;;14.37;38.32
70411;BME280;57832;46.038;11.398;2023-02-28T10:30:39;97300.91;;;14.12;38.58
70411;BME280;57832;46.038;11.398;2023-02-28T10:33:32;97294.72;;;16.55;35.80
70411;BME280;57832;46.038;11.398;2023-02-28T10:36:00;97285.50;;;19.59;31.28
70411;BME280;57832;46.038;11.398;2023-02-28T10:38:36;97289.25;;;20.74;29.01
70411;BME280;57832;46.038;11.398;2023-02-28T10:41:17;97278.09;;;17.34;30.35
70411;BME280;57832;46.038;11.398;2023-02-28T10:43:52;97280.66;;;13.80;36.41
70411;BME280;57832;46.038;11.398;2023-02-28T10:46:19;97275.13;;;12.62;38.81
70411;BME280;57832;46.038;11.398;2023-02-28T10:49:13;97273.19;;;14.78;37.05
70411;BME280;57832;46.038;11.398;2023-02-28T10:51:40;97267.19;;;15.24;35.84
70411;BME280;57832;46.038;11.398;2023-02-28T10:54:15;97269.72;;;13.98;36.03
70411;BME280;57832;46.038;11.398;2023-02-28T10:56:42;97257.16;;;14.21;36.18
70411;BME280;57832;46.038;11.398;2023-02-28T11:01:46;97260.94;;;17.85;32.05
70411;BME280;57832;46.038;11.398;2023-02-28T11:07:19;97245.38;;;22.20;25.60
70411;BME280;57832;46.038;11.398;2023-02-28T11:09:48;97256.25;;;18.06;29.37
70411;BME280;57832;46.038;11.398;2023-02-28T11:12:37;97253.09;;;14.77;33.82
70411;BME280;57832;46.038;11.398;2023-02-28T11:15:24;97257.91;;;15.47;35.06
70411;BME280;57832;46.038;11.398;2023-02-28T11:20:48;97249.44;;;14.83;34.86
70411;BME280;57832;46.038;11.398;2023-02-28T11:23:15;97241.59;;;14.25;36.25
70411;BME280;57832;46.038;11.398;2023-02-28T11:25:47;97234.41;;;14.99;35.21
70411;BME280;57832;46.038;11.398;2023-02-28T11:28:30;97230.91;;;15.91;34.23
70411;BME280;57832;46.038;11.398;2023-02-28T11:33:32;97222.00;;;20.77;30.09
70411;BME280;57832;46.038;11.398;2023-02-28T11:36:02;97219.22;;;23.01;25.44
70411;BME280;57832;46.038;11.398;2023-02-28T11:38:29;97216.56;;;20.82;27.15
70411;BME280;57832;46.038;11.398;2023-02-28T12:01:46;97176.94;;;16.87;31.80
70411;BME280;57832;46.038;11.398;2023-02-28T12:04:33;97174.94;;;19.52;28.30
70411;BME280;57832;46.038;11.398;2023-02-28T12:07:55;97159.97;;;21.48;26.79
70411;BME280;57832;46.038;11.398;2023-02-28T12:21:31;97150.16;;;16.04;32.29
70411;BME280;57832;46.038;11.398;2023-02-28T12:27:02;97139.25;;;16.61;32.92
70411;BME280;57832;46.038;11.398;2023-02-28T12:29:36;97139.31;;;16.05;31.90
70411;BME280;57832;46.038;11.398;2023-02-28T12:34:49;97126.72;;;20.24;27.32
70411;BME280;57832;46.038;11.398;2023-02-28T12:37:27;97120.44;;;18.56;29.11
70411;BME280;57832;46.038;11.398;2023-02-28T12:40:01;97116.16;;;16.32;31.50
70411;BME280;57832;46.038;11.398;2023-02-28T12:42:33;97114.88;;;16.64;31.95
70411;BME280;57832;46.038;11.398;2023-02-28T12:47:29;97121.81;;;15.39;32.49
70411;BME280;57832;46.038;11.398;2023-02-28T12:50:03;97117.53;;;15.64;31.87
70411;BME280;57832;46.038;11.398;2023-02-28T12:53:00;97111.38;;;15.79;32.23
70411;BME280;57832;46.038;11.398;2023-02-28T12:58:30;97087.38;;;18.29;29.86
70411;BME280;57832;46.038;11.398;2023-02-28T13:07:24;97085.56;;;15.45;32.09
70411;BME280;57832;46.038;11.398;2023-02-28T13:09:57;97083.00;;;15.24;32.98
70411;BME280;57832;46.038;11.398;2023-02-28T13:12:25;97073.13;;;15.55;33.21
70411;BME280;57832;46.038;11.398;2023-02-28T13:15:04;97068.94;;;15.39;33.12
70411;BME280;57832;46.038;11.398;2023-02-28T13:17:30;97071.81;;;15.58;32.93
70411;BME280;57832;46.038;11.398;2023-02-28T13:19:58;97064.75;;;15.98;32.28
70411;BME280;57832;46.038;11.398;2023-02-28T13:22:42;97052.72;;;18.20;29.31
70411;BME280;57832;46.038;11.398;2023-02-28T13:27:54;97057.63;;;15.28;32.96
70411;BME280;57832;46.038;11.398;2023-02-28T13:33:32;97051.31;;;15.24;34.22
70411;BME280;57832;46.038;11.398;2023-02-28T13:46:29;97039.28;;;14.66;33.26
70411;BME280;57832;46.038;11.398;2023-02-28T13:48:55;97040.25;;;15.07;33.67
70411;BME280;57832;46.038;11.398;2023-02-28T13:57:19;97025.78;;;14.63;34.39
70411;BME280;57832;46.038;11.398;2023-02-28T14:00:06;97030.28;;;14.78;35.21
70411;BME280;57832;46.038;11.398;2023-02-28T14:07:33;97022.38;;;14.57;34.66
70411;BME280;57832;46.038;11.398;2023-02-28T14:10:05;97013.91;;;14.24;35.16
70411;BME280;57832;46.038;11.398;2023-02-28T14:16:09;97015.78;;;14.13;34.98
70411;BME280;57832;46.038;11.398;2023-02-28T14:18:37;97019.19;;;13.93;35.53
70411;BME280;57832;46.038;11.398;2023-02-28T14:21:34;97012.56;;;13.91;35.49
70411;BME280;57832;46.038;11.398;2023-02-28T14:33:27;97003.78;;;13.54;36.46
70411;BME280;57832;46.038;11.398;2023-02-28T14:36:04;96995.03;;;13.38;36.99
70411;BME280;57832;46.038;11.398;2023-02-28T14:38:36;96990.84;;;13.37;37.88
70411;BME280;57832;46.038;11.398;2023-02-28T14:41:06;96989.53;;;13.40;37.72
70411;BME280;57832;46.038;11.398;2023-02-28T14:43:48;96989.03;;;13.53;36.45
70411;BME280;57832;46.038;11.398;2023-02-28T14:46:14;96993.31;;;13.11;36.92
70411;BME280;57832;46.038;11.398;2023-02-28T14:48:40;96991.31;;;12.81;37.51
70411;BME280;57832;46.038;11.398;2023-02-28T14:51:06;96987.66;;;12.82;37.57
70411;BME280;57832;46.038;11.398;2023-02-28T14:53:36;96981.91;;;12.85;38.51
70411;BME280;57832;46.038;11.398;2023-02-28T14:56:02;96983.66;;;12.74;38.23
70411;BME280;57832;46.038;11.398;2023-02-28T14:58:31;96982.50;;;12.54;38.67
70411;BME280;57832;46.038;11.398;2023-02-28T15:00:59;96986.06;;;12.76;38.66
70411;BME280;57832;46.038;11.398;2023-02-28T15:03:36;96983.72;;;12.42;38.77
70411;BME280;57832;46.038;11.398;2023-02-28T15:06:04;96982.81;;;12.26;39.41
70411;BME280;57832;46.038;11.398;2023-02-28T15:08:30;96978.59;;;12.25;40.79
70411;BME280;57832;46.038;11.398;2023-02-28T15:11:20;96978.28;;;12.16;40.59